Time;durP1;ratioP1;P1;durP2;ratioP2;P2;SDS_P1;SDS_P2;PMS_P1;PMS_P2;Temp;Humidity;BMP_temperature;BMP_pressure;BME280_temperature;BME280_humidity;BME280_pressure;Samples;Min_cycle;Max_cycle;Signal;HPM_P1;HPM_P2
2022/11/27 00:06:49;;;;;;;47.80;30.90;;;;;;;-0.61;99.93;100786.94;425140;1287;144706;-67
2022/11/27 00:16:56;;;;;;;50.90;31.10;;;;;;;-0.62;99.83;100779.36;434896;1289;143158;-66
2022/11/27 00:27:02;;;;;;;51.00;30.90;;;;;;;-0.61;99.89;100777.13;434096;1281;142664;-67
2022/11/27 00:37:07;;;;;;;51.30;33.30;;;;;;;-0.55;99.98;100784.53;434891;1289;143147;-66
2022/11/27 00:47:13;;;;;;;55.90;33.20;;;;;;;-0.48;99.92;100785.73;434756;1288;142610;-67
2022/11/27 00:57:19;;;;;;;55.00;32.60;;;;;;;-0.41;99.98;100784.53;429407;1286;143034;-66
2022/11/27 01:07:25;;;;;;;54.80;34.90;;;;;;;-0.40;99.94;100786.78;420910;1279;143223;-66
2022/11/27 01:17:31;;;;;;;56.30;35.10;;;;;;;-0.41;100.00;100788.67;434935;1288;142896;-66
2022/11/27 01:27:37;;;;;;;53.10;31.30;;;;;;;-0.41;100.00;100789.52;434171;1278;143355;-66
2022/11/27 01:37:42;;;;;;;53.60;31.00;;;;;;;-0.36;100.00;100790.05;432298;1286;153924;-66
2022/11/27 01:47:51;;;;;;;47.70;31.10;;;;;;;-0.31;100.00;100800.54;432628;1286;143208;-66
2022/11/27 01:58:00;;;;;;;55.80;35.00;;;;;;;-0.29;100.00;100802.45;434403;1289;191148;-66
2022/11/27 02:08:09;;;;;;;47.30;30.00;;;;;;;-0.30;100.00;100804.33;434748;1285;143743;-66
2022/11/27 02:18:24;;;;;;;51.40;29.60;;;;;;;-0.31;100.00;100803.98;434041;1289;143143;-66
2022/11/27 02:28:42;;;;;;;50.50;30.40;;;;;;;-0.41;100.00;100798.48;434763;1288;142538;-66
2022/11/27 02:38:55;;;;;;;59.20;36.80;;;;;;;-0.49;100.00;100803.63;433954;1287;144849;-66
2022/11/27 02:49:06;;;;;;;52.20;34.90;;;;;;;-0.46;100.00;100812.41;434884;1286;146497;-66
2022/11/27 02:59:14;;;;;;;60.00;38.30;;;;;;;-0.39;100.00;100812.42;434715;1286;143904;-66
2022/11/27 03:09:25;;;;;;;57.90;35.30;;;;;;;-0.48;100.00;100819.63;433954;1280;142823;-66
2022/11/27 03:19:37;;;;;;;63.70;38.90;;;;;;;-0.46;100.00;100817.23;434929;1292;143738;-66
2022/11/27 03:29:48;;;;;;;58.20;36.50;;;;;;;-0.38;100.00;100815.86;434126;1286;142824;-67
2022/11/27 03:39:54;;;;;;;67.90;39.90;;;;;;;-0.34;100.00;100811.20;434905;1292;143364;-67
2022/11/27 03:50:13;;;;;;;61.70;41.10;;;;;;;-0.42;100.00;100811.38;434671;1287;183459;-66
2022/11/27 04:00:20;;;;;;;58.60;35.00;;;;;;;-0.43;100.00;100803.29;427048;1286;143078;-66
2022/11/27 04:10:25;;;;;;;55.50;35.70;;;;;;;-0.39;100.00;100799.50;423014;1286;142418;-66
2022/11/27 04:20:31;;;;;;;58.70;36.30;;;;;;;-0.41;100.00;100800.70;418676;1287;142922;-66
2022/11/27 04:30:37;;;;;;;61.90;39.50;;;;;;;-0.44;100.00;100799.50;433948;1286;144569;-66
2022/11/27 04:40:42;;;;;;;64.50;37.10;;;;;;;-0.37;100.00;100799.68;434827;1294;143076;-66
2022/11/27 04:50:48;;;;;;;53.90;33.20;;;;;;;-0.32;100.00;100798.48;426750;1286;142091;-66
2022/11/27 05:00:54;;;;;;;55.30;34.60;;;;;;;-0.29;100.00;100811.39;425193;1287;142796;-66
2022/11/27 05:11:06;;;;;;;56.60;34.20;;;;;;;-0.22;100.00;100799.34;427213;1285;143324;-66
2022/11/27 05:21:11;;;;;;;59.90;35.60;;;;;;;-0.22;100.00;100798.14;434069;1288;142743;-66
2022/11/27 05:31:17;;;;;;;62.30;35.50;;;;;;;-0.24;100.00;100790.73;434729;1295;146432;-66
2022/11/27 05:41:22;;;;;;;57.60;36.30;;;;;;;-0.30;100.00;100794.86;434839;1288;143733;-66
2022/11/27 05:51:28;;;;;;;51.80;33.00;;;;;;;-0.30;100.00;100789.36;434075;1288;143510;-66
2022/11/27 06:01:34;;;;;;;56.40;34.30;;;;;;;-0.31;100.00;100793.33;431790;1293;142332;-65
2022/11/27 06:11:40;;;;;;;62.60;38.80;;;;;;;-0.30;100.00;100782.81;434631;1281;142691;-65
2022/11/27 06:21:46;;;;;;;67.60;40.20;;;;;;;-0.28;100.00;100774.21;426684;1287;197376;-64
2022/11/27 06:31:52;;;;;;;59.90;35.10;;;;;;;-0.26;100.00;100758.20;431819;1279;143170;-70
2022/11/27 06:41:58;;;;;;;68.90;42.80;;;;;;;-0.25;100.00;100756.50;434111;1286;142977;-67
2022/11/27 06:52:04;;;;;;;63.40;38.70;;;;;;;-0.15;100.00;100762.85;434806;1288;142872;-67
2022/11/27 07:02:13;;;;;;;69.60;44.00;;;;;;;-0.04;100.00;100764.39;434629;1289;144908;-65
2022/11/27 07:12:19;;;;;;;63.30;37.90;;;;;;;0.06;100.00;100769.70;434010;1287;143082;-66
2022/11/27 07:22:24;;;;;;;54.50;35.50;;;;;;;0.20;100.00;100777.27;434793;1287;143334;-66
2022/11/27 07:32:30;;;;;;;52.60;32.90;;;;;;;0.35;100.00;100781.88;434725;1287;143053;-67
2022/11/27 07:42:36;;;;;;;59.00;34.90;;;;;;;0.50;100.00;100784.42;434024;1289;144036;-67
2022/11/27 07:52:42;;;;;;;;;;;;;;;0.61;100.00;100780.59;434771;1287;142302;-66
2022/11/27 08:02:47;;;;;;;57.70;37.10;;;;;;;0.66;100.00;100780.56;434333;1288;129827;-67
2022/11/27 08:12:53;;;;;;;58.60;36.30;;;;;;;0.72;100.00;100771.94;434853;1284;143287;-66
2022/11/27 08:22:59;;;;;;;53.60;36.00;;;;;;;0.85;100.00;100773.25;434799;1286;143089;-66
2022/11/27 08:33:09;;;;;;;54.10;34.10;;;;;;;1.00;100.00;100780.23;434154;1279;142628;-66
2022/11/27 08:43:13;;;;;;;;;;;;;;;1.14;100.00;100783.61;434983;1288;141750;-67
2022/11/27 08:53:19;;;;;;;55.30;33.60;;;;;;;1.27;100.00;100781.80;434963;1286;130805;-65
2022/11/27 09:03:24;;;;;;;55.50;35.40;;;;;;;1.38;100.00;100787.26;433950;1278;143099;-66
2022/11/27 09:13:31;;;;;;;62.60;35.20;;;;;;;1.49;100.00;100796.68;427768;1283;143142;-65
2022/11/27 09:23:38;;;;;;;48.70;33.00;;;;;;;1.59;100.00;100791.25;427723;1280;142767;-66
2022/11/27 09:33:44;;;;;;;45.90;31.30;;;;;;;1.69;100.00;100793.43;434079;1286;211312;-67
2022/11/27 09:43:56;;;;;;;58.80;38.00;;;;;;;1.82;100.00;100792.98;432382;1285;142618;-67
2022/11/27 09:54:10;;;;;;;50.80;36.30;;;;;;;1.92;100.00;100792.02;433752;1293;143587;-66
2022/11/27 10:04:18;;;;;;;54.40;37.20;;;;;;;2.06;100.00;100784.81;434591;1279;142815;-66
2022/11/27 10:14:39;;;;;;;42.50;28.60;;;;;;;2.17;100.00;100782.47;434540;1278;142521;-67
2022/11/27 10:24:59;;;;;;;45.10;28.10;;;;;;;2.26;100.00;100775.97;419832;1287;142399;-67
2022/11/27 10:35:10;;;;;;;43.30;28.60;;;;;;;2.34;100.00;100761.73;420400;1279;143457;-68
2022/11/27 10:45:21;;;;;;;43.40;28.70;;;;;;;2.40;100.00;100751.29;420364;1280;188878;-66
2022/11/27 10:55:52;;;;;;;43.20;28.70;;;;;;;2.56;100.00;100749.19;419481;1286;144796;-66
2022/11/27 11:06:02;;;;;;;39.80;27.70;;;;;;;2.68;100.00;100736.06;417549;1287;146363;-67
2022/11/27 11:16:29;;;;;;;38.10;24.80;;;;;;;2.80;100.00;100729.52;419903;1287;144431;-67
2022/11/27 11:26:45;;;;;;;37.60;22.10;;;;;;;2.91;100.00;100719.52;418565;1286;142172;-68
2022/11/27 11:37:00;;;;;;;39.30;25.10;;;;;;;3.01;99.95;100711.95;434305;1292;199191;-66
2022/11/27 11:47:06;;;;;;;43.50;29.90;;;;;;;3.12;99.98;100711.77;420484;1281;143849;-67
2022/11/27 11:57:41;;;;;;;39.20;26.10;;;;;;;3.24;99.95;100708.83;433937;1288;143460;-67
2022/11/27 12:08:10;;;;;;;38.40;27.50;;;;;;;3.39;99.79;100700.98;434783;1288;143234;-66
2022/11/27 12:18:25;;;;;;;36.60;26.20;;;;;;;3.45;99.65;100692.39;433996;1285;142372;-67
2022/11/27 12:28:50;;;;;;;36.30;26.90;;;;;;;3.59;99.38;100680.54;431808;1294;143225;-67
2022/11/27 12:39:20;;;;;;;27.60;19.20;;;;;;;3.72;99.07;100676.85;434093;1286;142703;-67
2022/11/27 12:49:31;;;;;;;31.10;22.00;;;;;;;3.79;98.71;100676.91;428634;1286;142340;-67
2022/11/27 12:59:43;;;;;;;36.60;24.90;;;;;;;3.80;98.37;100676.19;432922;1293;142415;-67
2022/11/27 13:09:56;;;;;;;35.20;23.90;;;;;;;3.70;97.95;100679.16;434483;1294;197931;-66
2022/11/27 13:20:03;;;;;;;39.70;27.80;;;;;;;3.67;97.88;100673.83;434743;1288;143266;-67
2022/11/27 13:30:18;;;;;;;38.30;27.50;;;;;;;3.66;97.91;100682.68;434113;1286;142083;-66
2022/11/27 13:40:28;;;;;;;39.20;26.60;;;;;;;3.55;97.61;100681.15;434909;1292;142921;-67
2022/11/27 13:50:45;;;;;;;47.50;30.90;;;;;;;3.46;97.71;100680.77;434832;1292;143158;-66
2022/11/27 14:00:51;;;;;;;60.40;40.40;;;;;;;3.33;97.47;100676.31;434405;1285;198376;-67
2022/11/27 14:11:02;;;;;;;43.20;28.80;;;;;;;2.95;97.31;100656.48;434790;1284;143436;-67
2022/11/27 14:21:08;;;;;;;57.10;40.60;;;;;;;2.65;97.72;100639.98;433998;1292;142534;-68
2022/11/27 14:31:26;;;;;;;72.10;48.10;;;;;;;2.40;98.12;100640.51;434620;1294;142621;-65
2022/11/27 14:41:32;;;;;;;69.30;47.70;;;;;;;2.19;98.23;100640.95;434600;1292;144123;-67
2022/11/27 14:51:39;;;;;;;63.60;45.90;;;;;;;2.02;98.51;100649.60;433994;1292;142835;-67
2022/11/27 15:01:45;;;;;;;;;;;;;;;1.93;98.91;100659.89;433704;1289;142300;-67
2022/11/27 15:11:54;;;;;;;65.80;50.00;;;;;;;1.87;99.32;100655.64;434296;1292;184058;-65
2022/11/27 15:22:01;;;;;;;68.90;48.50;;;;;;;1.80;99.45;100660.90;434785;1288;141889;-66
2022/11/27 15:32:18;;;;;;;66.00;48.80;;;;;;;1.82;99.67;100655.19;434727;1288;143041;-66
2022/11/27 15:42:29;;;;;;;66.00;47.70;;;;;;;1.80;99.96;100653.30;434012;1285;142988;-65
2022/11/27 15:52:34;;;;;;;61.00;43.50;;;;;;;1.74;99.78;100647.67;434772;1292;142233;-66
2022/11/27 16:02:41;;;;;;;64.00;43.20;;;;;;;1.67;99.85;100639.98;434793;1285;144554;-67
2022/11/27 16:12:47;;;;;;;56.60;38.10;;;;;;;1.67;99.93;100638.42;430128;1287;209592;-67
2022/11/27 16:22:53;;;;;;;51.20;35.60;;;;;;;1.64;99.94;100627.93;434677;1285;142374;-67
2022/11/27 16:33:01;;;;;;;62.90;44.60;;;;;;;1.62;99.97;100614.83;433924;1286;144961;-68
2022/11/27 16:43:07;;;;;;;73.60;52.60;;;;;;;1.58;100.00;100606.23;433004;1287;142809;-67
2022/11/27 16:53:13;;;;;;;64.40;46.50;;;;;;;1.54;100.00;100594.70;434715;1285;143233;-66
2022/11/27 17:03:18;;;;;;;56.80;43.20;;;;;;;1.49;100.00;100591.84;433926;1288;142383;-66
2022/11/27 17:13:24;;;;;;;56.70;39.20;;;;;;;1.45;100.00;100587.04;423215;1287;141748;-68
2022/11/27 17:23:30;;;;;;;61.80;39.40;;;;;;;1.37;100.00;100584.36;426892;1279;141885;-69
2022/11/27 17:33:35;;;;;;;59.50;41.10;;;;;;;1.26;100.00;100578.42;433951;1278;142413;-67
2022/11/27 17:43:42;;;;;;;59.70;39.80;;;;;;;1.04;100.00;100570.34;434566;1285;142280;-67
2022/11/27 17:53:48;;;;;;;64.30;42.50;;;;;;;0.69;100.00;100568.73;433875;1285;144636;-66
2022/11/27 18:03:56;;;;;;;63.00;44.50;;;;;;;0.42;100.00;100565.81;425944;1285;142955;-65
2022/11/27 18:14:01;;;;;;;54.70;39.80;;;;;;;0.12;100.00;100569.77;434511;1286;142444;-68
2022/11/27 18:24:08;;;;;;;64.50;45.80;;;;;;;-0.11;100.00;100559.56;433744;1295;142595;-66
2022/11/27 18:34:30;;;;;;;63.20;43.20;;;;;;;-0.34;100.00;100562.92;434587;1288;143662;-66
2022/11/27 18:44:36;;;;;;;60.80;40.40;;;;;;;-0.51;100.00;100559.87;434624;1292;142136;-67
2022/11/27 18:54:49;;;;;;;53.70;40.00;;;;;;;-0.75;100.00;100541.70;433915;1286;211260;-66
2022/11/27 19:04:55;;;;;;;52.00;40.20;;;;;;;-0.94;100.00;100537.27;434426;1294;143089;-67
2022/11/27 19:15:01;;;;;;;58.40;41.80;;;;;;;-1.14;100.00;100529.38;433909;1286;142907;-67
2022/11/27 19:25:08;;;;;;;76.40;49.90;;;;;;;-1.32;100.00;100528.01;431694;1286;142610;-67
2022/11/27 19:35:14;;;;;;;70.60;49.10;;;;;;;-1.36;100.00;100521.48;434533;1289;144249;-67
2022/11/27 19:45:23;;;;;;;67.40;46.80;;;;;;;-1.34;100.00;100518.21;433724;1287;143188;-66
2022/11/27 19:55:28;;;;;;;75.00;50.20;;;;;;;-1.37;100.00;100521.30;434624;1291;144097;-67
2022/11/27 20:05:34;;;;;;;105.30;60.40;;;;;;;-1.39;100.00;100520.44;434645;1286;143914;-67
2022/11/27 20:15:42;;;;;;;83.30;55.00;;;;;;;-1.47;100.00;100539.52;425491;1288;144809;-68
2022/11/27 20:25:49;;;;;;;77.20;50.80;;;;;;;-1.62;100.00;100539.33;431427;1295;152800;-67
2022/11/27 20:35:55;;;;;;;88.10;55.70;;;;;;;-1.75;100.00;100538.79;433844;1295;143593;-66
2022/11/27 20:46:01;;;;;;;71.10;49.60;;;;;;;-1.83;100.00;100536.70;434493;1286;147960;-68
2022/11/27 20:56:09;;;;;;;76.20;54.60;;;;;;;-1.92;100.00;100536.01;431251;1279;144063;-66
2022/11/27 21:06:16;;;;;;;82.70;53.60;;;;;;;-2.01;100.00;100535.98;433675;1278;143589;-68
2022/11/27 21:16:20;;;;;;;;;;;;;;;-2.08;100.00;100521.71;434505;1292;165411;-67
2022/11/27 21:26:26;;;;;;;91.80;63.10;;;;;;;-2.14;100.00;100516.04;434526;1287;129407;-66
2022/11/27 21:36:34;;;;;;;118.40;75.40;;;;;;;-2.18;100.00;100509.85;428875;1280;142412;-67
2022/11/27 21:46:40;;;;;;;114.00;74.20;;;;;;;-2.25;100.00;100491.48;431493;1281;143827;-67
2022/11/27 21:56:50;;;;;;;93.10;60.60;;;;;;;-2.38;100.00;100472.55;433985;1286;143703;-67
2022/11/27 22:06:56;;;;;;;76.70;52.30;;;;;;;-2.54;100.00;100466.50;429759;1287;143170;-67
2022/11/27 22:17:01;;;;;;;82.70;55.20;;;;;;;-2.68;100.00;100470.91;434764;1286;144977;-67
2022/11/27 22:27:08;;;;;;;73.70;49.70;;;;;;;-2.72;100.00;100469.17;419542;1280;142522;-67
2022/11/27 22:37:12;;;;;;;;;;;;;;;-2.77;100.00;100471.55;434354;1285;146971;-67
2022/11/27 22:47:18;;;;;;;62.10;45.10;;;;;;;-2.81;100.00;100471.69;434703;1282;129481;-67
2022/11/27 22:57:24;;;;;;;58.20;40.40;;;;;;;-2.75;100.00;100458.01;433353;1278;145403;-65
2022/11/27 23:07:28;;;;;;;;;;;;;;;-2.73;100.00;100445.17;421021;1287;142843;-67
2022/11/27 23:17:34;;;;;;;55.50;39.00;;;;;;;-2.75;100.00;100436.75;434789;1281;132984;-67
2022/11/27 23:27:41;;;;;;;62.80;43.50;;;;;;;-2.73;100.00;100443.44;426288;1286;143229;-66
2022/11/27 23:37:46;;;;;;;65.30;46.30;;;;;;;-2.72;100.00;100456.83;421428;1282;141915;-68
2022/11/27 23:47:52;;;;;;;69.40;47.40;;;;;;;-2.73;100.00;100461.10;423722;1287;143983;-67
2022/11/27 23:57:58;;;;;;;74.20;51.50;;;;;;;-2.68;100.00;100442.27;434529;1286;143415;-67
